Time;durP1;ratioP1;P1;durP2;ratioP2;P2;SDS_P1;SDS_P2;PMS_P1;PMS_P2;Temp;Humidity;BMP_temperature;BMP_pressure;BME280_temperature;BME280_humidity;BME280_pressure;Samples;Min_cycle;Max_cycle;Signal;HPM_P1;HPM_P2
2023/02/18 00:02:11;;;;;;;3.47;1.77;;;;;;;;;;4982883;28;20088;-59
2023/02/18 00:04:36;;;;;;;2.70;1.60;;;;;;;;;;4983437;28;20034;-60
2023/02/18 00:07:02;;;;;;;2.70;1.70;;;;;;;;;;4986593;28;20026;-59
2023/02/18 00:09:27;;;;;;;3.40;1.63;;;;;;;;;;4985641;28;20058;-60
2023/02/18 00:11:52;;;;;;;2.80;1.63;;;;;;;;;;4983728;28;20026;-61
2023/02/18 00:14:18;;;;;;;1.98;1.60;;;;;;;;;;4982644;28;21817;-60
2023/02/18 00:16:43;;;;;;;3.65;1.80;;;;;;;;;;4985703;28;20030;-60
2023/02/18 00:19:14;;;;;;;2.60;1.80;;;;;;;;;;4984275;28;20037;-61
2023/02/18 00:21:39;;;;;;;3.38;1.98;;;;;;;;;;4984906;28;20034;-59
2023/02/18 00:24:05;;;;;;;2.35;1.70;;;;;;;;;;4985054;28;20036;-59
2023/02/18 00:26:30;;;;;;;2.33;1.70;;;;;;;;;;4984438;28;20038;-59
2023/02/18 00:28:56;;;;;;;2.80;1.70;;;;;;;;;;4983834;28;20042;-59
2023/02/18 00:31:23;;;;;;;2.05;1.60;;;;;;;;;;4984478;28;20026;-59
2023/02/18 00:33:48;;;;;;;;;;;;;;;;;;4983566;28;20116;-59
2023/02/18 00:36:15;;;;;;;2.77;1.60;;;;;;;;;;4984389;28;19997;-60
2023/02/18 00:38:44;;;;;;;3.60;1.60;;;;;;;;;;4984251;28;20278;-59
2023/02/18 00:41:10;;;;;;;2.35;1.58;;;;;;;;;;4986281;28;20023;-58
2023/02/18 00:43:35;;;;;;;2.35;1.55;;;;;;;;;;4985792;28;20038;-59
2023/02/18 00:46:01;;;;;;;2.20;1.70;;;;;;;;;;4985563;28;20034;-60
2023/02/18 00:48:26;;;;;;;3.08;1.70;;;;;;;;;;4985235;28;20034;-58
2023/02/18 00:50:51;;;;;;;3.58;1.80;;;;;;;;;;4986089;28;20913;-59
2023/02/18 00:53:16;;;;;;;3.25;1.75;;;;;;;;;;4987396;28;20083;-59
2023/02/18 00:55:42;;;;;;;2.45;1.70;;;;;;;;;;4984638;28;20393;-60
2023/02/18 00:58:08;;;;;;;2.50;1.92;;;;;;;;;;4987038;28;20180;-59
2023/02/18 01:00:33;;;;;;;3.13;1.75;;;;;;;;;;4985959;28;20451;-60
2023/02/18 01:02:59;;;;;;;2.60;1.70;;;;;;;;;;4987051;28;20037;-58
2023/02/18 01:05:24;;;;;;;3.83;1.80;;;;;;;;;;4994319;28;20041;-59
2023/02/18 01:07:49;;;;;;;2.38;1.70;;;;;;;;;;4988196;28;20030;-58
2023/02/18 01:10:15;;;;;;;2.92;1.80;;;;;;;;;;4986690;28;20038;-59
2023/02/18 01:12:40;;;;;;;2.65;1.70;;;;;;;;;;4987796;28;20585;-60
2023/02/18 01:15:06;;;;;;;2.75;1.70;;;;;;;;;;4987516;28;20038;-58
2023/02/18 01:17:31;;;;;;;3.70;1.65;;;;;;;;;;4986941;28;20043;-59
2023/02/18 01:19:57;;;;;;;2.60;1.60;;;;;;;;;;4988572;28;20038;-59
2023/02/18 01:22:22;;;;;;;3.25;1.65;;;;;;;;;;4986425;28;20073;-60
2023/02/18 01:24:48;;;;;;;3.70;1.65;;;;;;;;;;4987370;28;20049;-58
2023/02/18 01:27:13;;;;;;;2.70;1.77;;;;;;;;;;4987475;28;20034;-59
2023/02/18 01:29:40;;;;;;;3.83;2.05;;;;;;;;;;4986320;28;20046;-59
2023/02/18 01:32:05;;;;;;;4.63;2.13;;;;;;;;;;4977434;28;20395;-59
2023/02/18 01:34:30;;;;;;;3.90;1.90;;;;;;;;;;4988061;28;20101;-60
2023/02/18 01:36:57;;;;;;;3.75;2.13;;;;;;;;;;4987426;28;20034;-59
2023/02/18 01:39:25;;;;;;;3.50;1.90;;;;;;;;;;4988833;28;20038;-59
2023/02/18 01:41:50;;;;;;;2.45;1.70;;;;;;;;;;4986287;28;20026;-59
2023/02/18 01:44:16;;;;;;;5.32;2.00;;;;;;;;;;4984968;28;20646;-59
2023/02/18 01:46:44;;;;;;;2.72;1.90;;;;;;;;;;4986493;28;20038;-59
2023/02/18 01:49:10;;;;;;;2.28;1.60;;;;;;;;;;4986875;28;20047;-60
2023/02/18 01:51:44;;;;;;;2.63;1.85;;;;;;;;;;4985177;28;20042;-59
2023/02/18 01:54:12;;;;;;;2.53;1.63;;;;;;;;;;4987582;28;20113;-59
2023/02/18 01:56:41;;;;;;;2.90;1.80;;;;;;;;;;4985623;28;20034;-59
2023/02/18 01:59:08;;;;;;;2.38;1.70;;;;;;;;;;4987060;28;20038;-59
2023/02/18 02:01:34;;;;;;;;;;;;;;;;;;4986347;28;20058;-59
2023/02/18 02:03:59;;;;;;;2.53;1.73;;;;;;;;;;4986353;28;19996;-58
2023/02/18 02:06:25;;;;;;;5.47;1.90;;;;;;;;;;4986840;28;20026;-60
2023/02/18 02:08:53;;;;;;;3.95;1.90;;;;;;;;;;4986844;28;20034;-60
2023/02/18 02:11:27;;;;;;;4.45;1.90;;;;;;;;;;5001797;28;20078;-60
2023/02/18 02:13:58;;;;;;;2.80;1.90;;;;;;;;;;4987153;28;20022;-61
2023/02/18 02:16:43;;;;;;;3.42;1.85;;;;;;;;;;4983047;28;20391;-61
2023/02/18 02:19:18;;;;;;;3.65;1.83;;;;;;;;;;4984611;28;20125;-59
2023/02/18 02:22:00;;;;;;;3.30;2.13;;;;;;;;;;4981577;28;20034;-62
2023/02/18 02:24:28;;;;;;;3.95;2.30;;;;;;;;;;4980422;28;20034;-61
2023/02/18 02:27:13;;;;;;;5.25;2.00;;;;;;;;;;4977344;28;20140;-59
2023/02/18 02:29:40;;;;;;;6.97;2.20;;;;;;;;;;4982973;28;20042;-60
2023/02/18 02:32:24;;;;;;;5.07;2.30;;;;;;;;;;4983362;28;20033;-59
2023/02/18 02:34:53;;;;;;;4.38;2.08;;;;;;;;;;5000977;28;20070;-59
2023/02/18 02:37:31;;;;;;;4.28;2.10;;;;;;;;;;4982154;28;20037;-59
2023/02/18 02:40:09;;;;;;;3.80;2.00;;;;;;;;;;4978653;28;20030;-60
2023/02/18 02:42:34;;;;;;;3.45;2.00;;;;;;;;;;4977564;28;20109;-60
2023/02/18 02:45:09;;;;;;;3.75;1.90;;;;;;;;;;4980278;28;20030;-61
2023/02/18 02:47:41;;;;;;;3.97;2.15;;;;;;;;;;4982025;28;20505;-59
2023/02/18 02:50:12;;;;;;;4.00;2.00;;;;;;;;;;4983471;28;20034;-60
2023/02/18 02:52:42;;;;;;;3.10;2.05;;;;;;;;;;4983488;28;20041;-59
2023/02/18 02:55:08;;;;;;;3.35;2.00;;;;;;;;;;4984782;28;20513;-59
2023/02/18 02:57:36;;;;;;;3.50;1.90;;;;;;;;;;4981381;28;20045;-59
2023/02/18 03:00:10;;;;;;;3.20;1.77;;;;;;;;;;4985356;28;20030;-59
2023/02/18 03:02:41;;;;;;;2.53;1.90;;;;;;;;;;4982890;28;20045;-59
2023/02/18 03:05:06;;;;;;;3.10;1.90;;;;;;;;;;4982005;28;20439;-59
2023/02/18 03:07:47;;;;;;;2.15;1.67;;;;;;;;;;4981516;28;20038;-58
2023/02/18 03:10:19;;;;;;;3.50;1.90;;;;;;;;;;4983142;28;20077;-59
2023/02/18 03:12:44;;;;;;;3.20;2.10;;;;;;;;;;4983337;28;20487;-59
2023/02/18 03:15:16;;;;;;;4.43;2.10;;;;;;;;;;4984679;28;20122;-59
2023/02/18 03:17:50;;;;;;;3.70;2.03;;;;;;;;;;4981326;28;20491;-59
2023/02/18 03:20:24;;;;;;;4.20;2.10;;;;;;;;;;4983852;28;20043;-58
2023/02/18 03:22:51;;;;;;;3.45;2.30;;;;;;;;;;4983841;28;20064;-60
2023/02/18 03:25:17;;;;;;;4.63;2.20;;;;;;;;;;4984487;28;20034;-60
2023/02/18 03:27:42;;;;;;;2.70;1.98;;;;;;;;;;4986339;28;20038;-59
2023/02/18 03:30:16;;;;;;;4.15;2.30;;;;;;;;;;4983619;28;20042;-59
2023/02/18 03:32:42;;;;;;;3.50;2.28;;;;;;;;;;4992206;28;20633;-59
2023/02/18 03:35:10;;;;;;;4.60;2.45;;;;;;;;;;4976965;28;20038;-60
2023/02/18 03:37:38;;;;;;;3.20;2.00;;;;;;;;;;4982846;28;20030;-59
2023/02/18 03:40:05;;;;;;;3.85;2.20;;;;;;;;;;4982035;28;20121;-60
2023/02/18 03:42:30;;;;;;;3.77;2.23;;;;;;;;;;4963877;28;20494;-60
2023/02/18 03:44:55;;;;;;;3.78;2.20;;;;;;;;;;4983066;28;20038;-61
2023/02/18 03:47:22;;;;;;;5.03;2.20;;;;;;;;;;4983500;28;20038;-59
2023/02/18 03:49:48;;;;;;;3.50;2.17;;;;;;;;;;4983492;28;20038;-61
2023/02/18 03:52:13;;;;;;;2.92;2.03;;;;;;;;;;4983115;28;20030;-59
2023/02/18 03:54:39;;;;;;;2.97;1.90;;;;;;;;;;4983903;28;20117;-59
2023/02/18 03:57:04;;;;;;;3.03;1.90;;;;;;;;;;4982798;28;21792;-60
2023/02/18 03:59:29;;;;;;;3.28;2.03;;;;;;;;;;4983908;28;20038;-61
2023/02/18 04:01:55;;;;;;;3.10;2.00;;;;;;;;;;4986246;28;20030;-60
2023/02/18 04:04:20;;;;;;;3.95;2.10;;;;;;;;;;4985122;28;20041;-61
2023/02/18 04:06:45;;;;;;;2.92;1.80;;;;;;;;;;4979165;28;20489;-60
2023/02/18 04:09:10;;;;;;;5.90;2.05;;;;;;;;;;4981703;28;20038;-59
2023/02/18 04:11:39;;;;;;;4.00;2.00;;;;;;;;;;4980616;28;20049;-60
2023/02/18 04:14:05;;;;;;;5.32;2.15;;;;;;;;;;4981787;28;20026;-59
2023/02/18 04:16:30;;;;;;;3.35;2.05;;;;;;;;;;4981614;28;20084;-58
2023/02/18 04:18:55;;;;;;;3.38;2.00;;;;;;;;;;4982324;28;20026;-58
2023/02/18 04:21:21;;;;;;;2.95;1.90;;;;;;;;;;4982299;28;20030;-59
2023/02/18 04:23:46;;;;;;;3.22;2.00;;;;;;;;;;4984325;28;20106;-59
2023/02/18 04:26:11;;;;;;;3.03;2.00;;;;;;;;;;4982956;28;20043;-59
2023/02/18 04:28:37;;;;;;;2.55;1.88;;;;;;;;;;4977248;28;20030;-60
2023/02/18 04:31:02;;;;;;;3.10;1.90;;;;;;;;;;4983289;28;20038;-58
2023/02/18 04:33:27;;;;;;;4.07;2.20;;;;;;;;;;4980360;28;20438;-59
2023/02/18 04:35:53;;;;;;;4.05;2.08;;;;;;;;;;4982032;28;20042;-62
2023/02/18 04:38:18;;;;;;;3.08;2.03;;;;;;;;;;4983556;28;20451;-61
2023/02/18 04:40:43;;;;;;;4.35;2.20;;;;;;;;;;4980714;28;20487;-59
2023/02/18 04:43:08;;;;;;;3.00;2.00;;;;;;;;;;4979604;28;20069;-59
2023/02/18 04:45:34;;;;;;;5.05;2.10;;;;;;;;;;4980906;28;20157;-60
2023/02/18 04:47:59;;;;;;;3.05;2.03;;;;;;;;;;4979887;28;20034;-59
2023/02/18 04:50:25;;;;;;;4.45;2.00;;;;;;;;;;4981522;28;20042;-59
2023/02/18 04:52:50;;;;;;;3.63;1.85;;;;;;;;;;4982816;28;20034;-60
2023/02/18 04:55:15;;;;;;;3.40;2.17;;;;;;;;;;4980015;28;20046;-60
2023/02/18 04:57:40;;;;;;;3.15;1.95;;;;;;;;;;4983826;28;20049;-58
2023/02/18 05:00:07;;;;;;;2.10;1.73;;;;;;;;;;4977083;28;20046;-58
2023/02/18 05:02:32;;;;;;;5.05;1.98;;;;;;;;;;4981756;28;20479;-59
2023/02/18 05:04:58;;;;;;;2.25;1.60;;;;;;;;;;4981132;28;20097;-60
2023/02/18 05:07:24;;;;;;;3.20;1.90;;;;;;;;;;4981265;28;20145;-58
2023/02/18 05:09:49;;;;;;;4.43;1.85;;;;;;;;;;4980190;28;20034;-59
2023/02/18 05:12:15;;;;;;;2.35;1.75;;;;;;;;;;4982362;28;20136;-60
2023/02/18 05:14:40;;;;;;;4.35;2.45;;;;;;;;;;4996628;28;20410;-59
2023/02/18 05:17:05;;;;;;;4.15;2.10;;;;;;;;;;4982363;28;20458;-58
2023/02/18 05:19:31;;;;;;;2.63;2.08;;;;;;;;;;4981573;28;20052;-59
2023/02/18 05:21:56;;;;;;;3.53;2.17;;;;;;;;;;4982594;28;20038;-60
2023/02/18 05:24:21;;;;;;;4.32;2.00;;;;;;;;;;4983791;28;20038;-58
2023/02/18 05:26:47;;;;;;;3.13;2.00;;;;;;;;;;4983119;28;20438;-60
2023/02/18 05:29:12;;;;;;;2.58;1.88;;;;;;;;;;4982308;28;20154;-60
2023/02/18 05:31:37;;;;;;;3.47;2.20;;;;;;;;;;4980449;28;20034;-59
2023/02/18 05:34:03;;;;;;;3.28;1.88;;;;;;;;;;4981892;28;20031;-60
2023/02/18 05:36:28;;;;;;;3.50;2.10;;;;;;;;;;4982685;28;20027;-60
2023/02/18 05:38:53;;;;;;;3.90;1.80;;;;;;;;;;4983414;28;20592;-59
2023/02/18 05:41:19;;;;;;;2.75;1.80;;;;;;;;;;4981219;28;20038;-59
2023/02/18 05:46:29;;;;;;;2.75;2.00;;;;;;;;;;4986607;28;20031;-59
2023/02/18 05:48:54;;;;;;;2.85;2.00;;;;;;;;;;4984673;28;20151;-59
2023/02/18 05:51:19;;;;;;;2.88;2.00;;;;;;;;;;4986011;28;20057;-59
2023/02/18 05:53:44;;;;;;;3.50;2.00;;;;;;;;;;4985542;28;20045;-60
2023/02/18 05:56:10;;;;;;;3.47;2.10;;;;;;;;;;4984666;28;20036;-59
2023/02/18 05:58:35;;;;;;;3.80;2.13;;;;;;;;;;4983871;28;20077;-59
2023/02/18 06:01:00;;;;;;;2.97;2.17;;;;;;;;;;4999362;28;20053;-59
2023/02/18 06:03:26;;;;;;;4.35;2.30;;;;;;;;;;4981875;28;20080;-59
2023/02/18 06:05:51;;;;;;;4.35;2.38;;;;;;;;;;4982685;28;20118;-60
2023/02/18 06:08:19;;;;;;;2.70;1.98;;;;;;;;;;4983979;28;20038;-59
2023/02/18 06:10:44;;;;;;;;;;;;;;;;;;4982537;28;20037;-60
2023/02/18 06:13:09;;;;;;;5.68;2.05;;;;;;;;;;4979309;28;19917;-60
2023/02/18 06:15:34;;;;;;;3.90;2.00;;;;;;;;;;4984994;28;20034;-59
2023/02/18 06:18:00;;;;;;;4.75;2.00;;;;;;;;;;4983192;28;20057;-60
2023/02/18 06:20:25;;;;;;;4.00;2.00;;;;;;;;;;4985400;28;20800;-59
2023/02/18 06:22:50;;;;;;;3.80;2.22;;;;;;;;;;4985785;28;20030;-60
2023/02/18 06:25:16;;;;;;;3.45;2.00;;;;;;;;;;4985850;28;20034;-60
2023/02/18 06:27:41;;;;;;;4.30;2.50;;;;;;;;;;4984995;28;20031;-59
2023/02/18 06:30:06;;;;;;;4.78;2.17;;;;;;;;;;4984171;28;20154;-61
2023/02/18 06:32:32;;;;;;;4.30;2.08;;;;;;;;;;4984448;28;20035;-59
2023/02/18 06:34:57;;;;;;;3.25;1.88;;;;;;;;;;4983246;28;20490;-59
2023/02/18 06:37:22;;;;;;;4.28;2.30;;;;;;;;;;4983058;28;20037;-60
2023/02/18 06:39:48;;;;;;;4.10;2.10;;;;;;;;;;4984049;28;20061;-58
2023/02/18 06:42:13;;;;;;;5.22;2.28;;;;;;;;;;4999410;28;20085;-58
2023/02/18 06:44:38;;;;;;;3.53;2.10;;;;;;;;;;4984511;28;20070;-59
2023/02/18 06:47:03;;;;;;;3.88;2.30;;;;;;;;;;4980025;28;20489;-60
2023/02/18 06:49:29;;;;;;;3.50;2.00;;;;;;;;;;4983620;28;20402;-59
2023/02/18 06:51:54;;;;;;;5.22;2.55;;;;;;;;;;4984348;28;20402;-59
2023/02/18 06:54:19;;;;;;;3.38;2.03;;;;;;;;;;4980558;28;20030;-59
2023/02/18 06:56:45;;;;;;;3.25;2.05;;;;;;;;;;4985548;28;20030;-60
2023/02/18 06:59:10;;;;;;;3.50;1.95;;;;;;;;;;4985385;28;20481;-60
2023/02/18 07:01:35;;;;;;;7.53;3.03;;;;;;;;;;4986661;28;20049;-60
2023/02/18 07:04:01;;;;;;;5.22;2.40;;;;;;;;;;4983446;28;20030;-60
2023/02/18 07:06:26;;;;;;;3.72;2.30;;;;;;;;;;4983774;28;20331;-59
2023/02/18 07:08:51;;;;;;;5.18;2.20;;;;;;;;;;4979241;28;20034;-60
2023/02/18 07:11:17;;;;;;;3.33;2.08;;;;;;;;;;4986286;28;20464;-60
2023/02/18 07:13:42;;;;;;;3.17;2.03;;;;;;;;;;4983346;28;20138;-59
2023/02/18 07:16:07;;;;;;;4.53;2.20;;;;;;;;;;4983386;28;20026;-60
2023/02/18 07:18:32;;;;;;;4.22;2.30;;;;;;;;;;4981998;28;20042;-59
2023/02/18 07:20:58;;;;;;;3.05;2.00;;;;;;;;;;4984516;28;20992;-60
2023/02/18 07:23:23;;;;;;;4.53;2.10;;;;;;;;;;4983642;28;20035;-60
2023/02/18 07:25:48;;;;;;;4.00;2.08;;;;;;;;;;4982461;28;20030;-59
2023/02/18 07:28:14;;;;;;;3.80;2.42;;;;;;;;;;4979067;28;20042;-61
2023/02/18 07:30:39;;;;;;;2.92;2.00;;;;;;;;;;4985388;28;20076;-61
2023/02/18 07:33:05;;;;;;;5.07;2.15;;;;;;;;;;4984621;28;20491;-60
2023/02/18 07:35:30;;;;;;;4.47;2.17;;;;;;;;;;4976977;28;20089;-59
2023/02/18 07:37:56;;;;;;;3.92;2.40;;;;;;;;;;4985672;28;20464;-59
2023/02/18 07:40:22;;;;;;;3.23;2.10;;;;;;;;;;4977269;28;20577;-59
2023/02/18 07:42:47;;;;;;;5.45;1.90;;;;;;;;;;4985703;28;20268;-61
2023/02/18 07:45:13;;;;;;;3.40;2.00;;;;;;;;;;4981741;28;20271;-59
2023/02/18 07:47:38;;;;;;;2.92;2.08;;;;;;;;;;4986042;28;20380;-63
2023/02/18 07:50:05;;;;;;;2.83;1.90;;;;;;;;;;4983894;28;20035;-60
2023/02/18 07:52:30;;;;;;;3.30;2.00;;;;;;;;;;4986820;28;20118;-60
2023/02/18 07:54:55;;;;;;;2.63;1.80;;;;;;;;;;4987470;28;20149;-59
2023/02/18 07:57:20;;;;;;;4.03;2.17;;;;;;;;;;4986740;28;20031;-61
2023/02/18 07:59:46;;;;;;;5.60;2.08;;;;;;;;;;4983818;28;20073;-60
2023/02/18 08:02:16;;;;;;;3.75;2.40;;;;;;;;;;4984011;28;20095;-59
2023/02/18 08:04:41;;;;;;;3.92;2.22;;;;;;;;;;4983926;28;20035;-59
2023/02/18 08:07:06;;;;;;;3.47;2.28;;;;;;;;;;4984214;28;20468;-60
2023/02/18 08:09:31;;;;;;;3.45;2.20;;;;;;;;;;4984834;28;20042;-59
2023/02/18 08:11:57;;;;;;;3.80;2.17;;;;;;;;;;4983750;28;20125;-59
2023/02/18 08:14:22;;;;;;;5.78;2.28;;;;;;;;;;4985579;28;20113;-60
2023/02/18 08:16:48;;;;;;;4.55;2.33;;;;;;;;;;4986018;28;20031;-61
2023/02/18 08:19:13;;;;;;;4.30;2.33;;;;;;;;;;4985906;28;20477;-60
2023/02/18 08:21:38;;;;;;;3.28;2.38;;;;;;;;;;4985192;28;20038;-59
2023/02/18 08:24:03;;;;;;;5.30;3.47;;;;;;;;;;4986205;28;20065;-60
2023/02/18 08:26:29;;;;;;;3.85;2.10;;;;;;;;;;4985464;28;20027;-60
2023/02/18 08:28:54;;;;;;;5.18;2.40;;;;;;;;;;4984485;28;20039;-60
2023/02/18 08:31:21;;;;;;;3.92;2.13;;;;;;;;;;4985565;28;20026;-60
2023/02/18 08:33:47;;;;;;;3.67;2.22;;;;;;;;;;4985748;28;20115;-59
2023/02/18 08:36:12;;;;;;;3.55;2.40;;;;;;;;;;4981485;28;20026;-60
2023/02/18 08:38:38;;;;;;;2.92;2.10;;;;;;;;;;4981888;28;20038;-60
2023/02/18 08:41:04;;;;;;;3.50;2.22;;;;;;;;;;4986654;28;20038;-60
2023/02/18 08:43:30;;;;;;;3.53;2.25;;;;;;;;;;4988881;28;20031;-60
2023/02/18 08:45:56;;;;;;;3.13;2.25;;;;;;;;;;4983149;28;20483;-59
2023/02/18 08:48:21;;;;;;;4.30;2.30;;;;;;;;;;4999586;28;20443;-60
2023/02/18 08:50:47;;;;;;;3.67;2.20;;;;;;;;;;4983697;28;20558;-60
2023/02/18 08:53:12;;;;;;;3.65;2.17;;;;;;;;;;4984388;28;20117;-60
2023/02/18 08:55:39;;;;;;;5.60;3.55;;;;;;;;;;4987259;28;20121;-61
2023/02/18 08:58:05;;;;;;;3.67;2.33;;;;;;;;;;4982691;28;20430;-59
2023/02/18 09:00:31;;;;;;;3.13;2.20;;;;;;;;;;4982007;28;20030;-59
2023/02/18 09:02:56;;;;;;;3.70;2.30;;;;;;;;;;4985003;28;20038;-60
2023/02/18 09:05:21;;;;;;;6.30;2.42;;;;;;;;;;4982338;28;20034;-62
2023/02/18 09:07:47;;;;;;;4.97;2.20;;;;;;;;;;4986488;28;20040;-60
2023/02/18 09:10:12;;;;;;;3.58;2.10;;;;;;;;;;4985090;28;20248;-60
2023/02/18 09:12:37;;;;;;;7.63;2.25;;;;;;;;;;4986015;28;20038;-59
2023/02/18 09:15:03;;;;;;;4.18;2.22;;;;;;;;;;4988020;28;20035;-60
2023/02/18 09:17:29;;;;;;;4.28;2.40;;;;;;;;;;4991974;28;20029;-60
2023/02/18 09:19:54;;;;;;;5.38;2.28;;;;;;;;;;4993980;28;20038;-60
2023/02/18 09:22:19;;;;;;;3.60;2.30;;;;;;;;;;4988536;28;20037;-59
2023/02/18 09:24:45;;;;;;;5.22;2.90;;;;;;;;;;4986666;28;20026;-59
2023/02/18 09:27:10;;;;;;;4.63;2.90;;;;;;;;;;4988836;28;20045;-60
2023/02/18 09:29:38;;;;;;;5.43;2.80;;;;;;;;;;4989319;28;20038;-59
2023/02/18 09:32:04;;;;;;;5.60;2.45;;;;;;;;;;4985670;28;20120;-60
2023/02/18 09:34:29;;;;;;;3.05;2.13;;;;;;;;;;4986197;28;20613;-59
2023/02/18 09:36:55;;;;;;;6.90;2.75;;;;;;;;;;4988368;28;20577;-60
2023/02/18 09:39:20;;;;;;;5.82;2.78;;;;;;;;;;4984510;28;20036;-60
2023/02/18 09:41:50;;;;;;;6.53;2.38;;;;;;;;;;4985793;28;20080;-60
2023/02/18 09:44:21;;;;;;;5.97;2.40;;;;;;;;;;4982799;28;20141;-59
2023/02/18 09:46:59;;;;;;;3.65;2.40;;;;;;;;;;4985212;28;20848;-59
2023/02/18 09:49:25;;;;;;;7.72;2.40;;;;;;;;;;4987874;28;20058;-58
2023/02/18 09:51:51;;;;;;;3.28;1.98;;;;;;;;;;4986780;28;20406;-59
2023/02/18 09:54:17;;;;;;;2.95;2.10;;;;;;;;;;4987567;28;20034;-63
2023/02/18 09:56:43;;;;;;;3.75;2.28;;;;;;;;;;4988144;28;20034;-58
2023/02/18 09:59:19;;;;;;;4.18;2.42;;;;;;;;;;4987185;28;21002;-60
2023/02/18 10:01:46;;;;;;;7.32;2.15;;;;;;;;;;4983642;28;20039;-59
2023/02/18 10:04:11;;;;;;;4.40;1.73;;;;;;;;;;4984232;28;20034;-59
2023/02/18 10:06:37;;;;;;;3.75;2.00;;;;;;;;;;4984358;28;20034;-58
2023/02/18 10:09:04;;;;;;;4.63;2.03;;;;;;;;;;4984557;28;20042;-58
2023/02/18 10:11:30;;;;;;;3.05;1.77;;;;;;;;;;4984206;28;20030;-58
2023/02/18 10:13:56;;;;;;;4.28;1.88;;;;;;;;;;4986705;28;20076;-59
2023/02/18 10:16:22;;;;;;;4.53;1.83;;;;;;;;;;4984473;28;20576;-59
2023/02/18 10:18:49;;;;;;;4.05;1.80;;;;;;;;;;4984003;28;20593;-58
2023/02/18 10:21:16;;;;;;;3.35;1.90;;;;;;;;;;4986131;28;20030;-58
2023/02/18 10:23:53;;;;;;;5.07;1.60;;;;;;;;;;4986049;28;20088;-59
2023/02/18 10:26:19;;;;;;;6.53;2.00;;;;;;;;;;4986370;28;20104;-54
2023/02/18 10:28:45;;;;;;;2.78;1.90;;;;;;;;;;4987246;28;20042;-57
2023/02/18 10:31:13;;;;;;;3.50;1.83;;;;;;;;;;4986928;28;20030;-59
2023/02/18 10:33:48;;;;;;;2.28;1.63;;;;;;;;;;4985240;28;20031;-57
2023/02/18 10:36:25;;;;;;;3.25;2.10;;;;;;;;;;4985581;28;20679;-50
2023/02/18 10:38:56;;;;;;;2.67;1.80;;;;;;;;;;4987664;28;20092;-53
2023/02/18 10:41:38;;;;;;;3.55;1.80;;;;;;;;;;4989204;28;20034;-50
2023/02/18 10:44:13;;;;;;;4.85;1.63;;;;;;;;;;4987231;28;20105;-57
2023/02/18 10:46:41;;;;;;;2.45;1.40;;;;;;;;;;4986345;28;20114;-55
2023/02/18 10:49:06;;;;;;;2.17;1.60;;;;;;;;;;4984957;28;20712;-54
2023/02/18 10:51:33;;;;;;;4.88;1.80;;;;;;;;;;4986073;28;20052;-49
2023/02/18 10:53:58;;;;;;;2.40;1.73;;;;;;;;;;4986128;28;20483;-59
2023/02/18 10:56:42;;;;;;;2.63;1.80;;;;;;;;;;4986688;28;20077;-49
2023/02/18 10:59:12;;;;;;;6.47;1.70;;;;;;;;;;4987600;28;20038;-51
2023/02/18 11:01:38;;;;;;;2.70;1.52;;;;;;;;;;4988815;28;20038;-57
2023/02/18 11:04:06;;;;;;;2.58;1.70;;;;;;;;;;4987195;28;20470;-50
2023/02/18 11:06:31;;;;;;;3.45;1.95;;;;;;;;;;4986455;28;20027;-54
2023/02/18 11:08:57;;;;;;;2.65;1.80;;;;;;;;;;4985706;28;20587;-57
2023/02/18 11:11:24;;;;;;;2.47;1.73;;;;;;;;;;4987814;28;20045;-48
2023/02/18 11:13:53;;;;;;;2.90;1.75;;;;;;;;;;4987082;28;20036;-53
2023/02/18 11:16:21;;;;;;;5.25;1.73;;;;;;;;;;4986767;28;20422;-56
2023/02/18 11:18:46;;;;;;;3.05;1.90;;;;;;;;;;4982892;28;20041;-49
2023/02/18 11:21:12;;;;;;;4.00;1.85;;;;;;;;;;4985211;28;20031;-53
2023/02/18 11:23:45;;;;;;;4.20;1.73;;;;;;;;;;4985669;28;20031;-55
2023/02/18 11:26:11;;;;;;;4.35;1.83;;;;;;;;;;4987740;28;20109;-53
2023/02/18 11:28:51;;;;;;;2.85;1.75;;;;;;;;;;4987033;28;20050;-49
2023/02/18 11:31:23;;;;;;;4.15;1.92;;;;;;;;;;4980440;28;20038;-50
2023/02/18 11:33:53;;;;;;;5.50;1.70;;;;;;;;;;4982890;28;20044;-51
2023/02/18 11:36:22;;;;;;;3.47;1.70;;;;;;;;;;4986587;28;20036;-52
2023/02/18 11:38:49;;;;;;;2.15;1.63;;;;;;;;;;4985220;28;20467;-55
2023/02/18 11:41:20;;;;;;;1.83;1.63;;;;;;;;;;4968554;28;20440;-47
2023/02/18 11:43:46;;;;;;;3.85;1.90;;;;;;;;;;4986891;28;20383;-49
2023/02/18 11:46:16;;;;;;;4.32;1.80;;;;;;;;;;4985424;28;20610;-55
2023/02/18 11:48:42;;;;;;;3.28;1.70;;;;;;;;;;4975544;28;20050;-56
2023/02/18 11:51:14;;;;;;;3.60;2.30;;;;;;;;;;4985318;28;20042;-59
2023/02/18 11:53:51;;;;;;;5.65;3.20;;;;;;;;;;4986022;28;20034;-57
2023/02/18 11:56:19;;;;;;;20.88;8.23;;;;;;;;;;4984689;28;20034;-56
2023/02/18 11:58:44;;;;;;;;;;;;;;;;;;4982271;28;20041;-57
2023/02/18 12:01:13;;;;;;;6.43;3.53;;;;;;;;;;4984635;28;19914;-57
2023/02/18 12:03:45;;;;;;;3.92;2.03;;;;;;;;;;4982987;28;20077;-55
2023/02/18 12:06:13;;;;;;;5.53;3.63;;;;;;;;;;4984944;28;20034;-56
2023/02/18 12:08:43;;;;;;;27.52;13.48;;;;;;;;;;4986356;28;20172;-56
2023/02/18 12:11:11;;;;;;;6.18;3.33;;;;;;;;;;4984428;28;20022;-58
2023/02/18 12:13:41;;;;;;;4.45;2.90;;;;;;;;;;4985085;28;20037;-58
2023/02/18 12:16:21;;;;;;;6.07;2.72;;;;;;;;;;4981904;28;20105;-59
2023/02/18 12:18:49;;;;;;;3.40;2.20;;;;;;;;;;4973140;28;20054;-60
2023/02/18 12:21:22;;;;;;;5.30;3.50;;;;;;;;;;4984731;28;20476;-61
2023/02/18 12:23:54;;;;;;;9.10;4.75;;;;;;;;;;4984250;28;20465;-61
2023/02/18 12:26:23;;;;;;;4.50;2.90;;;;;;;;;;4983907;28;20276;-62
2023/02/18 12:28:56;;;;;;;6.45;4.72;;;;;;;;;;4975477;28;20027;-62
2023/02/18 12:31:21;;;;;;;6.75;4.03;;;;;;;;;;4983602;28;20117;-62
2023/02/18 12:33:46;;;;;;;9.02;6.68;;;;;;;;;;4981813;28;20567;-61
2023/02/18 12:36:18;;;;;;;5.22;3.75;;;;;;;;;;4983197;28;20027;-61
2023/02/18 12:38:43;;;;;;;4.28;2.63;;;;;;;;;;4979587;28;20034;-51
2023/02/18 12:41:22;;;;;;;2.55;1.92;;;;;;;;;;4966572;28;20041;-60
2023/02/18 12:44:06;;;;;;;5.20;3.30;;;;;;;;;;4982864;28;20121;-58
2023/02/18 12:46:43;;;;;;;3.80;2.38;;;;;;;;;;4982026;28;20038;-50
2023/02/18 12:49:34;;;;;;;4.38;2.20;;;;;;;;;;4984155;28;22587;-53
2023/02/18 12:52:18;;;;;;;3.60;2.28;;;;;;;;;;4979714;28;20104;-54
2023/02/18 12:55:04;;;;;;;4.00;2.58;;;;;;;;;;4979627;28;20507;-55
2023/02/18 12:57:34;;;;;;;3.53;2.17;;;;;;;;;;4971356;28;20130;-57
2023/02/18 12:59:59;;;;;;;3.50;2.28;;;;;;;;;;4987583;28;20030;-57
2023/02/18 13:02:33;;;;;;;3.50;2.08;;;;;;;;;;4987254;28;20478;-52
2023/02/18 13:05:17;;;;;;;3.35;2.00;;;;;;;;;;4986889;28;20073;-56
2023/02/18 13:07:48;;;;;;;6.25;2.03;;;;;;;;;;5002137;28;20402;-55
2023/02/18 13:10:32;;;;;;;3.72;2.40;;;;;;;;;;4986588;28;20046;-59
2023/02/18 13:13:03;;;;;;;4.00;2.60;;;;;;;;;;4987377;28;20113;-56
2023/02/18 13:15:39;;;;;;;5.03;2.30;;;;;;;;;;4986990;28;20044;-55
2023/02/18 13:18:09;;;;;;;4.00;2.63;;;;;;;;;;4985006;28;20344;-56
2023/02/18 13:20:41;;;;;;;5.43;2.33;;;;;;;;;;4985593;28;20475;-55
2023/02/18 13:23:09;;;;;;;3.85;2.25;;;;;;;;;;5000759;28;20434;-59
2023/02/18 13:25:37;;;;;;;4.07;2.45;;;;;;;;;;4989417;28;20041;-58
2023/02/18 13:28:08;;;;;;;3.80;2.58;;;;;;;;;;4987275;28;20030;-59
2023/02/18 13:30:37;;;;;;;5.15;2.72;;;;;;;;;;4987004;28;20034;-57
2023/02/18 13:33:05;;;;;;;3.72;2.22;;;;;;;;;;4985118;28;20030;-55
2023/02/18 13:35:36;;;;;;;4.32;2.53;;;;;;;;;;4985912;28;20495;-55
2023/02/18 13:38:11;;;;;;;4.80;2.83;;;;;;;;;;4980715;28;20030;-54
2023/02/18 13:40:37;;;;;;;4.15;2.35;;;;;;;;;;5001527;28;20045;-56
2023/02/18 13:43:21;;;;;;;3.92;2.40;;;;;;;;;;4983981;28;20030;-57
2023/02/18 13:46:05;;;;;;;4.88;2.97;;;;;;;;;;4980137;28;20038;-59
2023/02/18 13:48:32;;;;;;;4.95;2.83;;;;;;;;;;4987627;28;20044;-55
2023/02/18 13:51:04;;;;;;;4.40;2.80;;;;;;;;;;4985352;28;20046;-54
2023/02/18 13:53:31;;;;;;;9.25;3.38;;;;;;;;;;4984358;28;20034;-56
2023/02/18 13:55:56;;;;;;;4.28;2.85;;;;;;;;;;4987191;28;20122;-54
2023/02/18 13:58:25;;;;;;;3.97;2.60;;;;;;;;;;4988108;28;20117;-54
2023/02/18 14:01:13;;;;;;;3.80;2.30;;;;;;;;;;4986682;28;20073;-56
2023/02/18 14:03:41;;;;;;;3.50;2.30;;;;;;;;;;4979826;28;20732;-58
2023/02/18 14:06:24;;;;;;;3.97;2.40;;;;;;;;;;4983774;28;20023;-57
2023/02/18 14:08:50;;;;;;;4.40;2.28;;;;;;;;;;4983464;28;20058;-53
2023/02/18 14:11:15;;;;;;;3.95;2.40;;;;;;;;;;4984603;28;20121;-54
2023/02/18 14:13:43;;;;;;;5.22;2.38;;;;;;;;;;4982771;28;20638;-56
2023/02/18 14:16:09;;;;;;;5.30;2.67;;;;;;;;;;4981055;28;20058;-55
2023/02/18 14:18:37;;;;;;;3.03;2.17;;;;;;;;;;4979617;28;20039;-53
2023/02/18 14:21:04;;;;;;;5.10;2.60;;;;;;;;;;4996196;28;20038;-60
2023/02/18 14:23:36;;;;;;;3.97;2.45;;;;;;;;;;4994326;28;20136;-55
2023/02/18 14:26:13;;;;;;;4.88;2.72;;;;;;;;;;4973791;28;20030;-56
2023/02/18 14:28:39;;;;;;;5.30;2.65;;;;;;;;;;4984542;28;20065;-56
2023/02/18 14:31:04;;;;;;;5.28;2.35;;;;;;;;;;4984331;28;20121;-48
2023/02/18 14:33:30;;;;;;;27.60;9.20;;;;;;;;;;4970649;28;20067;-57
2023/02/18 14:36:12;;;;;;;14.00;6.13;;;;;;;;;;4981563;28;20069;-56
2023/02/18 14:38:44;;;;;;;12.35;7.88;;;;;;;;;;4984849;28;20049;-61
2023/02/18 14:41:18;;;;;;;4.88;3.15;;;;;;;;;;4983600;28;20129;-55
2023/02/18 14:44:02;;;;;;;8.35;2.67;;;;;;;;;;4985506;28;20065;-57
2023/02/18 14:46:40;;;;;;;3.83;2.20;;;;;;;;;;4985481;28;20473;-56
2023/02/18 14:49:24;;;;;;;4.68;2.75;;;;;;;;;;4982572;28;20027;-55
2023/02/18 14:51:50;;;;;;;3.95;2.65;;;;;;;;;;4973725;28;20092;-54